sensor_id;sensor_type;location;lat;lon;timestamp;pressure;altitude;pressure_sealevel;temperature
19196;BMP280;9730;48.926;11.376;2023-07-13T00:01:39;96784.84;;;18.57
19196;BMP280;9730;48.926;11.376;2023-07-13T00:04:07;96782.56;;;18.54
19196;BMP280;9730;48.926;11.376;2023-07-13T00:06:35;96784.31;;;18.53
19196;BMP280;9730;48.926;11.376;2023-07-13T00:09:02;96786.47;;;18.48
19196;BMP280;9730;48.926;11.376;2023-07-13T00:11:30;96793.59;;;18.45
19196;BMP280;9730;48.926;11.376;2023-07-13T00:13:58;96807.44;;;18.33
19196;BMP280;9730;48.926;11.376;2023-07-13T00:16:26;96808.63;;;18.29
19196;BMP280;9730;48.926;11.376;2023-07-13T00:18:55;96814.28;;;18.32
19196;BMP280;9730;48.926;11.376;2023-07-13T00:21:23;96805.94;;;18.40
19196;BMP280;9730;48.926;11.376;2023-07-13T00:23:51;96808.00;;;18.46
19196;BMP280;9730;48.926;11.376;2023-07-13T00:26:18;96801.66;;;18.50
19196;BMP280;9730;48.926;11.376;2023-07-13T00:28:47;96804.19;;;18.50
19196;BMP280;9730;48.926;11.376;2023-07-13T00:31:15;96800.72;;;18.41
19196;BMP280;9730;48.926;11.376;2023-07-13T00:33:43;96799.91;;;18.41
19196;BMP280;9730;48.926;11.376;2023-07-13T00:36:12;96805.81;;;18.41
19196;BMP280;9730;48.926;11.376;2023-07-13T00:38:41;96800.19;;;18.38
19196;BMP280;9730;48.926;11.376;2023-07-13T00:41:09;96793.47;;;18.37
19196;BMP280;9730;48.926;11.376;2023-07-13T00:43:37;96789.69;;;18.41
19196;BMP280;9730;48.926;11.376;2023-07-13T00:46:22;96803.25;;;18.41
19196;BMP280;9730;48.926;11.376;2023-07-13T00:48:51;96800.06;;;18.39
19196;BMP280;9730;48.926;11.376;2023-07-13T00:51:27;96801.81;;;18.39
19196;BMP280;9730;48.926;11.376;2023-07-13T00:53:59;96792.81;;;18.35
19196;BMP280;9730;48.926;11.376;2023-07-13T00:56:27;96802.59;;;18.30
19196;BMP280;9730;48.926;11.376;2023-07-13T00:58:57;96802.06;;;18.26
19196;BMP280;9730;48.926;11.376;2023-07-13T01:01:25;96797.75;;;18.27
19196;BMP280;9730;48.926;11.376;2023-07-13T01:03:52;96794.00;;;18.31
19196;BMP280;9730;48.926;11.376;2023-07-13T01:06:21;96803.13;;;18.24
19196;BMP280;9730;48.926;11.376;2023-07-13T01:08:49;96807.56;;;18.31
19196;BMP280;9730;48.926;11.376;2023-07-13T01:11:19;96810.38;;;18.19
19196;BMP280;9730;48.926;11.376;2023-07-13T01:13:48;96806.88;;;18.20
19196;BMP280;9730;48.926;11.376;2023-07-13T01:16:21;96796.41;;;18.23
19196;BMP280;9730;48.926;11.376;2023-07-13T01:18:50;96789.44;;;18.15
19196;BMP280;9730;48.926;11.376;2023-07-13T01:21:19;96788.47;;;18.16
19196;BMP280;9730;48.926;11.376;2023-07-13T01:23:46;96785.75;;;18.09
19196;BMP280;9730;48.926;11.376;2023-07-13T01:26:14;96785.00;;;18.17
19196;BMP280;9730;48.926;11.376;2023-07-13T01:28:42;96780.94;;;18.15
19196;BMP280;9730;48.926;11.376;2023-07-13T01:31:10;96771.25;;;18.09
19196;BMP280;9730;48.926;11.376;2023-07-13T01:33:39;96775.94;;;18.04
19196;BMP280;9730;48.926;11.376;2023-07-13T01:36:09;96782.13;;;18.02
19196;BMP280;9730;48.926;11.376;2023-07-13T01:38:39;96762.78;;;17.99
19196;BMP280;9730;48.926;11.376;2023-07-13T01:41:08;96765.59;;;18.06
19196;BMP280;9730;48.926;11.376;2023-07-13T01:43:36;96767.06;;;17.99
19196;BMP280;9730;48.926;11.376;2023-07-13T01:46:06;96763.72;;;18.08
19196;BMP280;9730;48.926;11.376;2023-07-13T01:48:46;96777.25;;;17.99
19196;BMP280;9730;48.926;11.376;2023-07-13T01:51:15;96762.41;;;18.13
19196;BMP280;9730;48.926;11.376;2023-07-13T01:53:45;96753.03;;;18.23
19196;BMP280;9730;48.926;11.376;2023-07-13T01:56:13;96751.78;;;18.08
19196;BMP280;9730;48.926;11.376;2023-07-13T01:58:40;96761.44;;;17.95
19196;BMP280;9730;48.926;11.376;2023-07-13T02:01:08;96760.38;;;17.98
19196;BMP280;9730;48.926;11.376;2023-07-13T02:03:36;96761.69;;;17.83
19196;BMP280;9730;48.926;11.376;2023-07-13T02:06:04;96756.56;;;17.73
19196;BMP280;9730;48.926;11.376;2023-07-13T02:08:32;96743.81;;;17.83
19196;BMP280;9730;48.926;11.376;2023-07-13T02:11:03;96759.94;;;17.83
19196;BMP280;9730;48.926;11.376;2023-07-13T02:13:31;96767.84;;;17.80
19196;BMP280;9730;48.926;11.376;2023-07-13T02:15:59;96764.59;;;17.59
19196;BMP280;9730;48.926;11.376;2023-07-13T02:18:27;96765.41;;;17.69
19196;BMP280;9730;48.926;11.376;2023-07-13T02:20:54;96766.91;;;17.81
19196;BMP280;9730;48.926;11.376;2023-07-13T02:23:22;96776.53;;;17.59
19196;BMP280;9730;48.926;11.376;2023-07-13T02:25:55;96770.69;;;17.38
19196;BMP280;9730;48.926;11.376;2023-07-13T02:28:24;96773.81;;;17.51
19196;BMP280;9730;48.926;11.376;2023-07-13T02:30:52;96775.03;;;17.57
19196;BMP280;9730;48.926;11.376;2023-07-13T02:33:20;96782.13;;;17.44
19196;BMP280;9730;48.926;11.376;2023-07-13T02:35:47;96774.47;;;17.44
19196;BMP280;9730;48.926;11.376;2023-07-13T02:38:15;96770.97;;;17.45
19196;BMP280;9730;48.926;11.376;2023-07-13T02:40:43;96781.16;;;17.45
19196;BMP280;9730;48.926;11.376;2023-07-13T02:43:11;96781.22;;;17.63
19196;BMP280;9730;48.926;11.376;2023-07-13T02:45:43;96783.88;;;17.53
19196;BMP280;9730;48.926;11.376;2023-07-13T02:48:13;96784.50;;;17.36
19196;BMP280;9730;48.926;11.376;2023-07-13T02:50:41;96789.91;;;17.22
19196;BMP280;9730;48.926;11.376;2023-07-13T02:53:09;96788.75;;;17.26
19196;BMP280;9730;48.926;11.376;2023-07-13T02:55:37;96788.53;;;17.18
19196;BMP280;9730;48.926;11.376;2023-07-13T02:58:07;96786.53;;;17.21
19196;BMP280;9730;48.926;11.376;2023-07-13T03:00:37;96791.53;;;17.23
19196;BMP280;9730;48.926;11.376;2023-07-13T03:03:08;96793.44;;;17.10
19196;BMP280;9730;48.926;11.376;2023-07-13T03:05:37;96793.53;;;16.99
19196;BMP280;9730;48.926;11.376;2023-07-13T03:08:05;96800.94;;;16.82
19196;BMP280;9730;48.926;11.376;2023-07-13T03:10:33;96797.13;;;16.97
19196;BMP280;9730;48.926;11.376;2023-07-13T03:13:02;96790.78;;;17.11
19196;BMP280;9730;48.926;11.376;2023-07-13T03:15:30;96809.50;;;17.01
19196;BMP280;9730;48.926;11.376;2023-07-13T03:17:58;96808.75;;;16.69
19196;BMP280;9730;48.926;11.376;2023-07-13T03:20:27;96807.47;;;16.75
19196;BMP280;9730;48.926;11.376;2023-07-13T03:22:54;96809.69;;;16.68
19196;BMP280;9730;48.926;11.376;2023-07-13T03:25:22;96812.22;;;16.68
19196;BMP280;9730;48.926;11.376;2023-07-13T03:27:50;96815.91;;;16.75
19196;BMP280;9730;48.926;11.376;2023-07-13T03:30:18;96807.28;;;16.67
19196;BMP280;9730;48.926;11.376;2023-07-13T03:32:46;96816.19;;;16.61
19196;BMP280;9730;48.926;11.376;2023-07-13T03:35:14;96830.72;;;16.50
19196;BMP280;9730;48.926;11.376;2023-07-13T03:37:43;96832.94;;;16.44
19196;BMP280;9730;48.926;11.376;2023-07-13T03:40:17;96842.22;;;16.34
19196;BMP280;9730;48.926;11.376;2023-07-13T03:42:45;96852.28;;;16.35
19196;BMP280;9730;48.926;11.376;2023-07-13T03:45:16;96849.03;;;16.33
19196;BMP280;9730;48.926;11.376;2023-07-13T03:47:44;96856.75;;;16.43
19196;BMP280;9730;48.926;11.376;2023-07-13T03:50:11;96854.22;;;16.43
19196;BMP280;9730;48.926;11.376;2023-07-13T03:52:40;96858.41;;;16.33
19196;BMP280;9730;48.926;11.376;2023-07-13T03:55:09;96849.88;;;16.34
19196;BMP280;9730;48.926;11.376;2023-07-13T03:57:37;96847.34;;;16.54
19196;BMP280;9730;48.926;11.376;2023-07-13T04:00:07;96857.94;;;16.39
19196;BMP280;9730;48.926;11.376;2023-07-13T04:02:41;96862.38;;;16.26
19196;BMP280;9730;48.926;11.376;2023-07-13T04:05:09;96862.94;;;16.18
19196;BMP280;9730;48.926;11.376;2023-07-13T04:07:36;96866.84;;;16.22
19196;BMP280;9730;48.926;11.376;2023-07-13T04:10:06;96873.00;;;16.20
19196;BMP280;9730;48.926;11.376;2023-07-13T04:12:35;96866.34;;;16.50
19196;BMP280;9730;48.926;11.376;2023-07-13T04:15:03;96868.25;;;16.68
19196;BMP280;9730;48.926;11.376;2023-07-13T04:17:31;96878.22;;;16.60
19196;BMP280;9730;48.926;11.376;2023-07-13T04:19:59;96893.53;;;16.49
19196;BMP280;9730;48.926;11.376;2023-07-13T04:22:26;96890.44;;;16.46
19196;BMP280;9730;48.926;11.376;2023-07-13T04:24:54;96892.72;;;16.49
19196;BMP280;9730;48.926;11.376;2023-07-13T04:27:22;96906.03;;;16.42
19196;BMP280;9730;48.926;11.376;2023-07-13T04:29:52;96911.19;;;16.62
19196;BMP280;9730;48.926;11.376;2023-07-13T04:32:20;96921.06;;;16.55
19196;BMP280;9730;48.926;11.376;2023-07-13T04:34:47;96925.69;;;16.50
19196;BMP280;9730;48.926;11.376;2023-07-13T04:37:19;96931.50;;;16.42
19196;BMP280;9730;48.926;11.376;2023-07-13T04:39:47;96927.69;;;16.78
19196;BMP280;9730;48.926;11.376;2023-07-13T04:42:14;96953.69;;;16.50
19196;BMP280;9730;48.926;11.376;2023-07-13T04:44:47;96966.06;;;16.55
19196;BMP280;9730;48.926;11.376;2023-07-13T04:47:16;96972.59;;;16.79
19196;BMP280;9730;48.926;11.376;2023-07-13T04:49:44;96988.66;;;16.91
19196;BMP280;9730;48.926;11.376;2023-07-13T04:52:12;96999.72;;;16.69
19196;BMP280;9730;48.926;11.376;2023-07-13T04:54:40;97003.91;;;17.02
19196;BMP280;9730;48.926;11.376;2023-07-13T04:57:08;97020.97;;;16.90
19196;BMP280;9730;48.926;11.376;2023-07-13T04:59:36;97041.25;;;16.70
19196;BMP280;9730;48.926;11.376;2023-07-13T05:02:04;97034.53;;;16.80
19196;BMP280;9730;48.926;11.376;2023-07-13T05:04:34;97058.28;;;16.69
19196;BMP280;9730;48.926;11.376;2023-07-13T05:07:02;97063.38;;;16.69
19196;BMP280;9730;48.926;11.376;2023-07-13T05:09:29;97068.19;;;16.94
19196;BMP280;9730;48.926;11.376;2023-07-13T05:11:57;97088.09;;;17.00
19196;BMP280;9730;48.926;11.376;2023-07-13T05:14:25;97110.91;;;16.91
19196;BMP280;9730;48.926;11.376;2023-07-13T05:16:53;97128.72;;;17.02
19196;BMP280;9730;48.926;11.376;2023-07-13T05:19:20;97146.44;;;17.03
19196;BMP280;9730;48.926;11.376;2023-07-13T05:21:49;97165.19;;;17.13
19196;BMP280;9730;48.926;11.376;2023-07-13T05:24:17;97177.25;;;17.11
19196;BMP280;9730;48.926;11.376;2023-07-13T05:26:50;97201.09;;;17.21
19196;BMP280;9730;48.926;11.376;2023-07-13T05:29:18;97208.28;;;17.27
19196;BMP280;9730;48.926;11.376;2023-07-13T05:31:45;97215.22;;;17.03
19196;BMP280;9730;48.926;11.376;2023-07-13T05:34:13;97219.53;;;17.24
19196;BMP280;9730;48.926;11.376;2023-07-13T05:36:41;97231.44;;;17.02
19196;BMP280;9730;48.926;11.376;2023-07-13T05:39:11;97238.97;;;16.71
19196;BMP280;9730;48.926;11.376;2023-07-13T05:41:39;97228.56;;;17.06
19196;BMP280;9730;48.926;11.376;2023-07-13T05:44:06;97243.25;;;17.03
19196;BMP280;9730;48.926;11.376;2023-07-13T05:46:34;97256.44;;;16.86
19196;BMP280;9730;48.926;11.376;2023-07-13T05:49:02;97261.06;;;16.81
19196;BMP280;9730;48.926;11.376;2023-07-13T05:51:30;97257.50;;;16.95
19196;BMP280;9730;48.926;11.376;2023-07-13T05:53:58;97266.66;;;17.19
19196;BMP280;9730;48.926;11.376;2023-07-13T05:56:27;97272.34;;;17.33
19196;BMP280;9730;48.926;11.376;2023-07-13T05:58:56;97255.19;;;17.46
19196;BMP280;9730;48.926;11.376;2023-07-13T06:01:23;97268.41;;;17.40
19196;BMP280;9730;48.926;11.376;2023-07-13T06:03:51;97279.41;;;18.15
19196;BMP280;9730;48.926;11.376;2023-07-13T06:06:19;97271.50;;;19.20
19196;BMP280;9730;48.926;11.376;2023-07-13T06:08:47;97270.69;;;19.88
19196;BMP280;9730;48.926;11.376;2023-07-13T06:11:17;97268.53;;;19.93
19196;BMP280;9730;48.926;11.376;2023-07-13T06:13:46;97262.09;;;20.36
19196;BMP280;9730;48.926;11.376;2023-07-13T06:16:15;97261.53;;;20.61
19196;BMP280;9730;48.926;11.376;2023-07-13T06:18:43;97236.28;;;21.21
19196;BMP280;9730;48.926;11.376;2023-07-13T06:21:12;97231.94;;;22.02
19196;BMP280;9730;48.926;11.376;2023-07-13T06:23:41;97166.66;;;24.04
19196;BMP280;9730;48.926;11.376;2023-07-13T06:26:10;97079.72;;;26.11
19196;BMP280;9730;48.926;11.376;2023-07-13T06:28:38;97059.47;;;26.36
19196;BMP280;9730;48.926;11.376;2023-07-13T06:31:09;97056.66;;;27.10
19196;BMP280;9730;48.926;11.376;2023-07-13T06:33:37;97013.06;;;27.48
19196;BMP280;9730;48.926;11.376;2023-07-13T06:36:06;97039.13;;;26.48
19196;BMP280;9730;48.926;11.376;2023-07-13T06:38:35;97032.53;;;26.60
19196;BMP280;9730;48.926;11.376;2023-07-13T06:41:03;97049.13;;;26.36
19196;BMP280;9730;48.926;11.376;2023-07-13T06:43:31;97074.19;;;24.32
19196;BMP280;9730;48.926;11.376;2023-07-13T06:45:59;97145.59;;;23.43
19196;BMP280;9730;48.926;11.376;2023-07-13T06:48:29;97156.66;;;23.85
19196;BMP280;9730;48.926;11.376;2023-07-13T06:50:56;97170.97;;;23.30
19196;BMP280;9730;48.926;11.376;2023-07-13T06:53:24;97183.44;;;23.09
19196;BMP280;9730;48.926;11.376;2023-07-13T06:55:52;97207.31;;;22.26
19196;BMP280;9730;48.926;11.376;2023-07-13T06:58:21;97236.84;;;21.78
19196;BMP280;9730;48.926;11.376;2023-07-13T07:00:50;97240.25;;;21.96
19196;BMP280;9730;48.926;11.376;2023-07-13T07:03:19;97243.75;;;22.90
19196;BMP280;9730;48.926;11.376;2023-07-13T07:05:48;97196.09;;;24.01
19196;BMP280;9730;48.926;11.376;2023-07-13T07:08:16;97147.19;;;25.41
19196;BMP280;9730;48.926;11.376;2023-07-13T07:10:43;97099.50;;;27.12
19196;BMP280;9730;48.926;11.376;2023-07-13T07:13:11;97056.25;;;28.65
19196;BMP280;9730;48.926;11.376;2023-07-13T07:15:39;97012.94;;;29.12
19196;BMP280;9730;48.926;11.376;2023-07-13T07:18:07;97018.75;;;28.34
19196;BMP280;9730;48.926;11.376;2023-07-13T07:20:35;97012.63;;;29.73
19196;BMP280;9730;48.926;11.376;2023-07-13T07:23:04;97027.50;;;28.66
19196;BMP280;9730;48.926;11.376;2023-07-13T07:25:32;97056.47;;;27.88
19196;BMP280;9730;48.926;11.376;2023-07-13T07:28:03;97094.25;;;27.97
19196;BMP280;9730;48.926;11.376;2023-07-13T07:30:34;97030.03;;;28.87
19196;BMP280;9730;48.926;11.376;2023-07-13T07:33:04;96995.25;;;29.60
19196;BMP280;9730;48.926;11.376;2023-07-13T07:35:32;96985.25;;;30.09
19196;BMP280;9730;48.926;11.376;2023-07-13T07:38:01;96959.03;;;30.17
19196;BMP280;9730;48.926;11.376;2023-07-13T07:40:30;97027.47;;;29.85
19196;BMP280;9730;48.926;11.376;2023-07-13T07:43:02;96959.09;;;30.67
19196;BMP280;9730;48.926;11.376;2023-07-13T07:45:30;96986.81;;;30.23
19196;BMP280;9730;48.926;11.376;2023-07-13T07:47:58;96998.03;;;30.93
19196;BMP280;9730;48.926;11.376;2023-07-13T07:50:27;96963.09;;;32.34
19196;BMP280;9730;48.926;11.376;2023-07-13T07:52:55;96959.59;;;32.23
19196;BMP280;9730;48.926;11.376;2023-07-13T07:55:23;97001.09;;;31.20
19196;BMP280;9730;48.926;11.376;2023-07-13T07:57:57;97048.00;;;29.48
19196;BMP280;9730;48.926;11.376;2023-07-13T08:00:28;97079.28;;;28.74
19196;BMP280;9730;48.926;11.376;2023-07-13T08:03:11;97111.06;;;28.89
19196;BMP280;9730;48.926;11.376;2023-07-13T08:05:58;97053.53;;;30.74
19196;BMP280;9730;48.926;11.376;2023-07-13T08:08:40;97037.22;;;31.04
19196;BMP280;9730;48.926;11.376;2023-07-13T08:11:08;97033.41;;;31.13
19196;BMP280;9730;48.926;11.376;2023-07-13T08:13:41;97027.03;;;31.40
19196;BMP280;9730;48.926;11.376;2023-07-13T08:16:10;97011.53;;;32.24
19196;BMP280;9730;48.926;11.376;2023-07-13T08:18:38;96969.28;;;31.43
19196;BMP280;9730;48.926;11.376;2023-07-13T08:21:07;97030.38;;;30.53
19196;BMP280;9730;48.926;11.376;2023-07-13T08:23:36;96971.97;;;31.61
19196;BMP280;9730;48.926;11.376;2023-07-13T08:26:04;96966.53;;;32.82
19196;BMP280;9730;48.926;11.376;2023-07-13T08:28:33;96928.94;;;28.66
19196;BMP280;9730;48.926;11.376;2023-07-13T08:31:03;96955.69;;;29.52
19196;BMP280;9730;48.926;11.376;2023-07-13T08:33:31;97017.53;;;27.54
19196;BMP280;9730;48.926;11.376;2023-07-13T08:35:58;97039.19;;;27.95
19196;BMP280;9730;48.926;11.376;2023-07-13T08:38:26;97063.25;;;28.37
19196;BMP280;9730;48.926;11.376;2023-07-13T08:40:56;97106.47;;;27.12
19196;BMP280;9730;48.926;11.376;2023-07-13T08:43:27;97076.78;;;28.33
19196;BMP280;9730;48.926;11.376;2023-07-13T08:46:01;97014.75;;;29.24
19196;BMP280;9730;48.926;11.376;2023-07-13T08:48:34;97043.03;;;28.60
19196;BMP280;9730;48.926;11.376;2023-07-13T08:51:09;97031.38;;;29.30
19196;BMP280;9730;48.926;11.376;2023-07-13T08:53:42;97052.88;;;29.83
19196;BMP280;9730;48.926;11.376;2023-07-13T08:56:17;97014.38;;;30.37
19196;BMP280;9730;48.926;11.376;2023-07-13T08:58:51;97017.69;;;30.82
19196;BMP280;9730;48.926;11.376;2023-07-13T09:01:25;97016.00;;;30.51
19196;BMP280;9730;48.926;11.376;2023-07-13T09:04:07;96980.09;;;32.01
19196;BMP280;9730;48.926;11.376;2023-07-13T09:06:44;96972.78;;;31.85
19196;BMP280;9730;48.926;11.376;2023-07-13T09:09:20;96955.72;;;32.49
19196;BMP280;9730;48.926;11.376;2023-07-13T09:12:01;96972.50;;;33.47
19196;BMP280;9730;48.926;11.376;2023-07-13T09:14:36;96904.78;;;33.57
19196;BMP280;9730;48.926;11.376;2023-07-13T09:17:14;96926.03;;;32.80
19196;BMP280;9730;48.926;11.376;2023-07-13T09:19:46;96933.22;;;31.88
19196;BMP280;9730;48.926;11.376;2023-07-13T09:22:18;96951.31;;;31.35
19196;BMP280;9730;48.926;11.376;2023-07-13T09:24:52;96949.22;;;31.50
19196;BMP280;9730;48.926;11.376;2023-07-13T09:27:26;96940.78;;;32.56
19196;BMP280;9730;48.926;11.376;2023-07-13T09:30:02;96900.13;;;33.71
19196;BMP280;9730;48.926;11.376;2023-07-13T09:32:32;96923.06;;;31.08
19196;BMP280;9730;48.926;11.376;2023-07-13T09:35:09;96959.91;;;29.53
19196;BMP280;9730;48.926;11.376;2023-07-13T09:37:38;96998.66;;;28.82
19196;BMP280;9730;48.926;11.376;2023-07-13T09:40:23;97005.38;;;28.03
19196;BMP280;9730;48.926;11.376;2023-07-13T09:42:53;97021.19;;;27.45
19196;BMP280;9730;48.926;11.376;2023-07-13T09:45:29;97010.59;;;28.09
19196;BMP280;9730;48.926;11.376;2023-07-13T09:48:04;96994.25;;;29.55
19196;BMP280;9730;48.926;11.376;2023-07-13T09:50:34;97001.31;;;27.94
19196;BMP280;9730;48.926;11.376;2023-07-13T09:53:02;97022.00;;;28.15
19196;BMP280;9730;48.926;11.376;2023-07-13T09:55:32;97051.75;;;27.91
19196;BMP280;9730;48.926;11.376;2023-07-13T09:58:04;97083.34;;;27.81
19196;BMP280;9730;48.926;11.376;2023-07-13T10:00:33;97039.41;;;28.48
19196;BMP280;9730;48.926;11.376;2023-07-13T10:03:03;97099.22;;;27.22
19196;BMP280;9730;48.926;11.376;2023-07-13T10:05:41;97143.75;;;26.88
19196;BMP280;9730;48.926;11.376;2023-07-13T10:08:17;97101.03;;;27.77
19196;BMP280;9730;48.926;11.376;2023-07-13T10:10:46;97123.25;;;27.86
19196;BMP280;9730;48.926;11.376;2023-07-13T10:13:24;97083.88;;;28.79
19196;BMP280;9730;48.926;11.376;2023-07-13T10:15:54;97046.31;;;30.95
19196;BMP280;9730;48.926;11.376;2023-07-13T10:18:24;97027.84;;;30.21
19196;BMP280;9730;48.926;11.376;2023-07-13T10:21:00;96950.34;;;31.60
19196;BMP280;9730;48.926;11.376;2023-07-13T10:23:50;96962.41;;;32.03
19196;BMP280;9730;48.926;11.376;2023-07-13T10:26:22;96948.94;;;32.78
19196;BMP280;9730;48.926;11.376;2023-07-13T10:28:54;96886.63;;;34.47
19196;BMP280;9730;48.926;11.376;2023-07-13T10:31:23;96872.72;;;34.07
19196;BMP280;9730;48.926;11.376;2023-07-13T10:33:51;96912.38;;;33.07
19196;BMP280;9730;48.926;11.376;2023-07-13T10:36:30;96917.19;;;33.85
19196;BMP280;9730;48.926;11.376;2023-07-13T10:39:01;96868.41;;;33.56
19196;BMP280;9730;48.926;11.376;2023-07-13T10:41:33;96873.56;;;33.10
19196;BMP280;9730;48.926;11.376;2023-07-13T10:44:04;96905.13;;;31.72
19196;BMP280;9730;48.926;11.376;2023-07-13T10:46:32;96916.28;;;33.04
19196;BMP280;9730;48.926;11.376;2023-07-13T10:49:02;96887.66;;;33.09
19196;BMP280;9730;48.926;11.376;2023-07-13T10:51:33;96897.44;;;32.20
19196;BMP280;9730;48.926;11.376;2023-07-13T10:54:16;96904.31;;;34.68
19196;BMP280;9730;48.926;11.376;2023-07-13T10:56:46;96887.50;;;33.79
19196;BMP280;9730;48.926;11.376;2023-07-13T10:59:18;96872.53;;;33.75
19196;BMP280;9730;48.926;11.376;2023-07-13T11:01:55;96861.59;;;32.62
19196;BMP280;9730;48.926;11.376;2023-07-13T11:04:24;96855.59;;;32.62
19196;BMP280;9730;48.926;11.376;2023-07-13T11:06:57;96904.31;;;31.96
19196;BMP280;9730;48.926;11.376;2023-07-13T11:09:35;96922.94;;;29.45
19196;BMP280;9730;48.926;11.376;2023-07-13T11:12:08;97026.59;;;29.27
19196;BMP280;9730;48.926;11.376;2023-07-13T11:15:01;97027.81;;;29.76
19196;BMP280;9730;48.926;11.376;2023-07-13T11:17:47;97002.44;;;29.39
19196;BMP280;9730;48.926;11.376;2023-07-13T11:20:30;96991.66;;;29.74
19196;BMP280;9730;48.926;11.376;2023-07-13T11:23:33;96980.28;;;30.01
19196;BMP280;9730;48.926;11.376;2023-07-13T11:26:39;97028.66;;;28.57
19196;BMP280;9730;48.926;11.376;2023-07-13T11:29:09;97038.69;;;28.06
19196;BMP280;9730;48.926;11.376;2023-07-13T11:31:37;97071.22;;;27.88
19196;BMP280;9730;48.926;11.376;2023-07-13T11:34:12;97105.78;;;27.53
19196;BMP280;9730;48.926;11.376;2023-07-13T11:36:43;97039.81;;;29.45
19196;BMP280;9730;48.926;11.376;2023-07-13T11:39:18;97006.66;;;29.72
19196;BMP280;9730;48.926;11.376;2023-07-13T11:41:50;97001.56;;;30.55
19196;BMP280;9730;48.926;11.376;2023-07-13T11:44:21;96991.22;;;30.22
19196;BMP280;9730;48.926;11.376;2023-07-13T11:46:51;96989.81;;;30.46
19196;BMP280;9730;48.926;11.376;2023-07-13T11:49:22;96982.28;;;30.75
19196;BMP280;9730;48.926;11.376;2023-07-13T11:51:51;97000.56;;;29.20
19196;BMP280;9730;48.926;11.376;2023-07-13T11:54:26;96982.75;;;28.98
19196;BMP280;9730;48.926;11.376;2023-07-13T11:56:58;96992.13;;;28.99
19196;BMP280;9730;48.926;11.376;2023-07-13T11:59:29;97001.53;;;28.53
19196;BMP280;9730;48.926;11.376;2023-07-13T12:01:58;97033.38;;;28.41
19196;BMP280;9730;48.926;11.376;2023-07-13T12:04:28;97041.56;;;28.44
19196;BMP280;9730;48.926;11.376;2023-07-13T12:07:03;97003.03;;;28.42
19196;BMP280;9730;48.926;11.376;2023-07-13T12:09:33;97001.44;;;28.74
19196;BMP280;9730;48.926;11.376;2023-07-13T12:12:03;97008.81;;;28.10
19196;BMP280;9730;48.926;11.376;2023-07-13T12:14:37;97017.28;;;28.92
19196;BMP280;9730;48.926;11.376;2023-07-13T12:17:10;96975.81;;;29.11
19196;BMP280;9730;48.926;11.376;2023-07-13T12:19:39;96997.28;;;28.80
19196;BMP280;9730;48.926;11.376;2023-07-13T12:22:11;96971.47;;;29.38
19196;BMP280;9730;48.926;11.376;2023-07-13T12:24:41;96976.00;;;29.23
19196;BMP280;9730;48.926;11.376;2023-07-13T12:27:19;96992.72;;;28.95
19196;BMP280;9730;48.926;11.376;2023-07-13T12:29:50;96956.19;;;29.02
19196;BMP280;9730;48.926;11.376;2023-07-13T12:32:20;97005.00;;;28.40
19196;BMP280;9730;48.926;11.376;2023-07-13T12:34:53;97006.97;;;28.04
19196;BMP280;9730;48.926;11.376;2023-07-13T12:37:21;97035.59;;;28.44
19196;BMP280;9730;48.926;11.376;2023-07-13T12:39:51;97009.34;;;28.26
19196;BMP280;9730;48.926;11.376;2023-07-13T12:42:21;97017.53;;;27.54
19196;BMP280;9730;48.926;11.376;2023-07-13T12:44:53;97022.56;;;27.62
19196;BMP280;9730;48.926;11.376;2023-07-13T12:47:21;96982.75;;;27.63
19196;BMP280;9730;48.926;11.376;2023-07-13T12:49:54;97009.69;;;27.69
19196;BMP280;9730;48.926;11.376;2023-07-13T12:52:24;96996.69;;;27.89
19196;BMP280;9730;48.926;11.376;2023-07-13T12:54:59;96943.06;;;28.17
19196;BMP280;9730;48.926;11.376;2023-07-13T12:57:31;96934.91;;;27.87
19196;BMP280;9730;48.926;11.376;2023-07-13T12:59:59;96927.31;;;27.58
19196;BMP280;9730;48.926;11.376;2023-07-13T13:02:29;96969.88;;;27.76
19196;BMP280;9730;48.926;11.376;2023-07-13T13:04:58;96962.16;;;28.10
19196;BMP280;9730;48.926;11.376;2023-07-13T13:07:26;96959.56;;;27.83
19196;BMP280;9730;48.926;11.376;2023-07-13T13:09:54;96985.22;;;28.05
19196;BMP280;9730;48.926;11.376;2023-07-13T13:12:23;96973.06;;;28.33
19196;BMP280;9730;48.926;11.376;2023-07-13T13:14:52;96974.03;;;28.25
19196;BMP280;9730;48.926;11.376;2023-07-13T13:17:22;96962.69;;;28.26
19196;BMP280;9730;48.926;11.376;2023-07-13T13:19:51;96948.22;;;27.35
19196;BMP280;9730;48.926;11.376;2023-07-13T13:22:21;96966.59;;;27.61
19196;BMP280;9730;48.926;11.376;2023-07-13T13:24:49;96921.84;;;28.07
19196;BMP280;9730;48.926;11.376;2023-07-13T13:27:17;96952.81;;;27.54
19196;BMP280;9730;48.926;11.376;2023-07-13T13:29:48;96940.19;;;27.72
19196;BMP280;9730;48.926;11.376;2023-07-13T13:32:18;96959.00;;;28.14
19196;BMP280;9730;48.926;11.376;2023-07-13T13:34:46;96933.59;;;28.03
19196;BMP280;9730;48.926;11.376;2023-07-13T13:37:19;96923.50;;;28.15
19196;BMP280;9730;48.926;11.376;2023-07-13T13:39:48;96893.28;;;28.28
19196;BMP280;9730;48.926;11.376;2023-07-13T13:42:24;96890.09;;;28.33
19196;BMP280;9730;48.926;11.376;2023-07-13T13:44:54;96915.72;;;28.55
19196;BMP280;9730;48.926;11.376;2023-07-13T13:47:29;96925.03;;;28.03
19196;BMP280;9730;48.926;11.376;2023-07-13T13:49:58;96937.84;;;28.11
19196;BMP280;9730;48.926;11.376;2023-07-13T13:52:26;96942.34;;;28.30
19196;BMP280;9730;48.926;11.376;2023-07-13T13:54:54;96918.06;;;27.70
19196;BMP280;9730;48.926;11.376;2023-07-13T13:57:23;96938.03;;;28.43
19196;BMP280;9730;48.926;11.376;2023-07-13T13:59:52;96917.50;;;28.54
19196;BMP280;9730;48.926;11.376;2023-07-13T14:02:25;96922.13;;;28.65
19196;BMP280;9730;48.926;11.376;2023-07-13T14:04:55;96892.63;;;28.66
19196;BMP280;9730;48.926;11.376;2023-07-13T14:07:24;96872.94;;;27.91
19196;BMP280;9730;48.926;11.376;2023-07-13T14:09:52;96905.41;;;28.21
19196;BMP280;9730;48.926;11.376;2023-07-13T14:12:20;96915.13;;;28.13
19196;BMP280;9730;48.926;11.376;2023-07-13T14:14:48;96904.03;;;28.25
19196;BMP280;9730;48.926;11.376;2023-07-13T14:17:20;96890.66;;;27.88
19196;BMP280;9730;48.926;11.376;2023-07-13T14:19:51;96894.72;;;28.03
19196;BMP280;9730;48.926;11.376;2023-07-13T14:22:24;96903.47;;;27.96
19196;BMP280;9730;48.926;11.376;2023-07-13T14:24:53;96924.72;;;27.85
19196;BMP280;9730;48.926;11.376;2023-07-13T14:27:21;96899.06;;;27.90